sensor_id;sensor_type;location;lat;lon;timestamp;P1;durP1;ratioP1;P2;durP2;ratioP2
23163;SDS011;31429;42.674;23.350;2023-05-31T00:00:33;40.70;;;34.80;;
23163;SDS011;31429;42.674;23.350;2023-05-31T00:01:34;33.60;;;27.33;;
23163;SDS011;31429;42.674;23.350;2023-05-31T00:02:34;28.13;;;23.23;;
23163;SDS011;31429;42.674;23.350;2023-05-31T00:03:35;26.77;;;22.73;;
23163;SDS011;31429;42.674;23.350;2023-05-31T00:04:40;28.80;;;24.47;;
23163;SDS011;31429;42.674;23.350;2023-05-31T00:05:41;46.13;;;41.10;;
23163;SDS011;31429;42.674;23.350;2023-05-31T00:06:42;29.20;;;26.03;;
23163;SDS011;31429;42.674;23.350;2023-05-31T00:07:43;38.37;;;33.27;;
23163;SDS011;31429;42.674;23.350;2023-05-31T00:08:43;39.73;;;33.47;;
23163;SDS011;31429;42.674;23.350;2023-05-31T00:09:44;26.23;;;22.17;;
23163;SDS011;31429;42.674;23.350;2023-05-31T00:10:44;34.83;;;30.20;;
23163;SDS011;31429;42.674;23.350;2023-05-31T00:11:45;34.30;;;30.30;;
23163;SDS011;31429;42.674;23.350;2023-05-31T00:12:46;41.63;;;37.13;;
23163;SDS011;31429;42.674;23.350;2023-05-31T00:13:48;38.43;;;32.73;;
23163;SDS011;31429;42.674;23.350;2023-05-31T00:14:48;47.77;;;40.20;;
23163;SDS011;31429;42.674;23.350;2023-05-31T00:15:49;41.50;;;36.97;;
23163;SDS011;31429;42.674;23.350;2023-05-31T00:16:50;40.37;;;35.87;;
23163;SDS011;31429;42.674;23.350;2023-05-31T00:17:50;47.70;;;42.50;;
23163;SDS011;31429;42.674;23.350;2023-05-31T00:18:51;49.57;;;43.27;;
23163;SDS011;31429;42.674;23.350;2023-05-31T00:19:51;25.97;;;23.20;;
23163;SDS011;31429;42.674;23.350;2023-05-31T00:20:52;35.43;;;29.87;;
23163;SDS011;31429;42.674;23.350;2023-05-31T00:21:53;47.80;;;42.60;;
23163;SDS011;31429;42.674;23.350;2023-05-31T00:22:53;37.17;;;31.77;;
23163;SDS011;31429;42.674;23.350;2023-05-31T00:23:54;42.00;;;37.53;;
23163;SDS011;31429;42.674;23.350;2023-05-31T00:24:54;42.77;;;37.80;;
23163;SDS011;31429;42.674;23.350;2023-05-31T00:25:55;45.07;;;40.20;;
23163;SDS011;31429;42.674;23.350;2023-05-31T00:26:56;39.23;;;33.17;;
23163;SDS011;31429;42.674;23.350;2023-05-31T00:27:57;42.47;;;35.90;;
23163;SDS011;31429;42.674;23.350;2023-05-31T00:28:59;39.30;;;35.03;;
23163;SDS011;31429;42.674;23.350;2023-05-31T00:30:00;42.90;;;38.27;;
23163;SDS011;31429;42.674;23.350;2023-05-31T00:31:00;33.13;;;29.10;;
23163;SDS011;31429;42.674;23.350;2023-05-31T00:32:01;24.27;;;21.77;;
23163;SDS011;31429;42.674;23.350;2023-05-31T00:33:02;23.00;;;20.60;;
23163;SDS011;31429;42.674;23.350;2023-05-31T00:34:02;17.57;;;14.90;;
23163;SDS011;31429;42.674;23.350;2023-05-31T00:35:03;10.83;;;9.67;;
23163;SDS011;31429;42.674;23.350;2023-05-31T00:36:05;16.23;;;14.63;;
23163;SDS011;31429;42.674;23.350;2023-05-31T00:37:06;21.10;;;18.90;;
23163;SDS011;31429;42.674;23.350;2023-05-31T00:38:06;28.93;;;25.53;;
23163;SDS011;31429;42.674;23.350;2023-05-31T00:39:07;19.47;;;16.43;;
23163;SDS011;31429;42.674;23.350;2023-05-31T00:40:08;23.30;;;20.87;;
23163;SDS011;31429;42.674;23.350;2023-05-31T00:41:09;23.30;;;19.90;;
23163;SDS011;31429;42.674;23.350;2023-05-31T00:42:10;18.57;;;15.70;;
23163;SDS011;31429;42.674;23.350;2023-05-31T00:43:10;11.80;;;10.53;;
23163;SDS011;31429;42.674;23.350;2023-05-31T00:44:13;19.50;;;16.30;;
23163;SDS011;31429;42.674;23.350;2023-05-31T00:45:13;30.20;;;26.90;;
23163;SDS011;31429;42.674;23.350;2023-05-31T00:46:16;26.33;;;23.63;;
23163;SDS011;31429;42.674;23.350;2023-05-31T00:47:24;32.37;;;29.03;;
23163;SDS011;31429;42.674;23.350;2023-05-31T00:48:28;31.57;;;25.63;;
23163;SDS011;31429;42.674;23.350;2023-05-31T00:49:29;27.43;;;24.00;;
23163;SDS011;31429;42.674;23.350;2023-05-31T00:50:30;28.90;;;25.63;;
23163;SDS011;31429;42.674;23.350;2023-05-31T00:51:31;23.97;;;21.47;;
23163;SDS011;31429;42.674;23.350;2023-05-31T00:52:33;20.63;;;18.43;;
23163;SDS011;31429;42.674;23.350;2023-05-31T00:53:34;27.83;;;24.87;;
23163;SDS011;31429;42.674;23.350;2023-05-31T00:54:35;27.03;;;21.57;;
23163;SDS011;31429;42.674;23.350;2023-05-31T00:55:36;22.30;;;19.53;;
23163;SDS011;31429;42.674;23.350;2023-05-31T00:56:37;17.20;;;15.10;;
23163;SDS011;31429;42.674;23.350;2023-05-31T00:57:40;18.60;;;15.93;;
23163;SDS011;31429;42.674;23.350;2023-05-31T00:58:41;13.67;;;12.47;;
23163;SDS011;31429;42.674;23.350;2023-05-31T00:59:43;10.53;;;9.50;;
23163;SDS011;31429;42.674;23.350;2023-05-31T01:00:44;13.33;;;11.97;;
23163;SDS011;31429;42.674;23.350;2023-05-31T01:01:45;13.33;;;11.50;;
23163;SDS011;31429;42.674;23.350;2023-05-31T01:02:46;15.83;;;13.17;;
23163;SDS011;31429;42.674;23.350;2023-05-31T01:03:50;12.87;;;11.63;;
23163;SDS011;31429;42.674;23.350;2023-05-31T01:04:51;11.87;;;10.47;;
23163;SDS011;31429;42.674;23.350;2023-05-31T01:05:52;13.30;;;12.10;;
23163;SDS011;31429;42.674;23.350;2023-05-31T01:06:53;11.90;;;10.73;;
23163;SDS011;31429;42.674;23.350;2023-05-31T01:07:53;11.40;;;10.10;;
23163;SDS011;31429;42.674;23.350;2023-05-31T01:08:54;11.93;;;10.80;;
23163;SDS011;31429;42.674;23.350;2023-05-31T01:09:55;15.23;;;13.73;;
23163;SDS011;31429;42.674;23.350;2023-05-31T01:10:56;19.57;;;15.70;;
23163;SDS011;31429;42.674;23.350;2023-05-31T01:12:06;26.73;;;23.43;;
23163;SDS011;31429;42.674;23.350;2023-05-31T01:13:16;28.20;;;25.23;;
23163;SDS011;31429;42.674;23.350;2023-05-31T01:14:26;20.90;;;18.67;;
23163;SDS011;31429;42.674;23.350;2023-05-31T01:15:35;16.07;;;11.63;;
23163;SDS011;31429;42.674;23.350;2023-05-31T01:16:45;13.40;;;11.97;;
23163;SDS011;31429;42.674;23.350;2023-05-31T01:17:53;14.03;;;12.53;;
23163;SDS011;31429;42.674;23.350;2023-05-31T01:19:01;14.67;;;11.20;;
23163;SDS011;31429;42.674;23.350;2023-05-31T01:20:07;12.07;;;10.87;;
23163;SDS011;31429;42.674;23.350;2023-05-31T01:21:10;12.47;;;11.03;;
23163;SDS011;31429;42.674;23.350;2023-05-31T01:22:13;14.27;;;12.80;;
23163;SDS011;31429;42.674;23.350;2023-05-31T01:23:33;12.67;;;11.37;;
23163;SDS011;31429;42.674;23.350;2023-05-31T01:24:40;15.67;;;14.03;;
23163;SDS011;31429;42.674;23.350;2023-05-31T01:25:57;21.80;;;19.47;;
23163;SDS011;31429;42.674;23.350;2023-05-31T01:27:07;25.50;;;22.33;;
23163;SDS011;31429;42.674;23.350;2023-05-31T01:28:08;19.73;;;17.73;;
23163;SDS011;31429;42.674;23.350;2023-05-31T01:29:12;25.97;;;21.07;;
23163;SDS011;31429;42.674;23.350;2023-05-31T01:30:14;25.07;;;21.50;;
23163;SDS011;31429;42.674;23.350;2023-05-31T01:31:18;21.23;;;18.50;;
23163;SDS011;31429;42.674;23.350;2023-05-31T01:32:21;14.97;;;13.47;;
23163;SDS011;31429;42.674;23.350;2023-05-31T01:33:23;24.70;;;21.23;;
23163;SDS011;31429;42.674;23.350;2023-05-31T01:34:25;21.87;;;19.70;;
23163;SDS011;31429;42.674;23.350;2023-05-31T01:35:25;21.27;;;19.17;;
23163;SDS011;31429;42.674;23.350;2023-05-31T01:36:27;22.37;;;17.67;;
23163;SDS011;31429;42.674;23.350;2023-05-31T01:37:28;22.50;;;19.70;;
23163;SDS011;31429;42.674;23.350;2023-05-31T01:38:28;13.00;;;11.03;;
23163;SDS011;31429;42.674;23.350;2023-05-31T01:39:29;17.00;;;13.73;;
23163;SDS011;31429;42.674;23.350;2023-05-31T01:40:30;12.07;;;10.77;;
23163;SDS011;31429;42.674;23.350;2023-05-31T01:41:33;13.97;;;12.47;;
23163;SDS011;31429;42.674;23.350;2023-05-31T01:42:38;11.43;;;10.33;;
23163;SDS011;31429;42.674;23.350;2023-05-31T01:43:40;12.37;;;11.27;;
23163;SDS011;31429;42.674;23.350;2023-05-31T01:44:43;13.13;;;11.83;;
23163;SDS011;31429;42.674;23.350;2023-05-31T01:45:45;17.70;;;15.90;;
23163;SDS011;31429;42.674;23.350;2023-05-31T01:46:45;17.27;;;15.47;;
23163;SDS011;31429;42.674;23.350;2023-05-31T01:47:47;23.73;;;20.30;;
23163;SDS011;31429;42.674;23.350;2023-05-31T01:48:50;22.87;;;19.20;;
23163;SDS011;31429;42.674;23.350;2023-05-31T01:49:52;20.20;;;18.17;;
23163;SDS011;31429;42.674;23.350;2023-05-31T01:50:53;19.63;;;17.37;;
23163;SDS011;31429;42.674;23.350;2023-05-31T01:51:56;17.70;;;15.73;;
23163;SDS011;31429;42.674;23.350;2023-05-31T01:52:58;20.47;;;18.30;;
23163;SDS011;31429;42.674;23.350;2023-05-31T01:53:59;20.37;;;17.20;;
23163;SDS011;31429;42.674;23.350;2023-05-31T01:54:59;15.07;;;13.60;;
23163;SDS011;31429;42.674;23.350;2023-05-31T01:56:01;15.80;;;14.10;;
23163;SDS011;31429;42.674;23.350;2023-05-31T01:57:02;17.33;;;15.53;;
23163;SDS011;31429;42.674;23.350;2023-05-31T01:58:05;19.23;;;17.23;;
23163;SDS011;31429;42.674;23.350;2023-05-31T01:59:07;20.33;;;17.90;;
23163;SDS011;31429;42.674;23.350;2023-05-31T02:00:08;20.67;;;18.60;;
23163;SDS011;31429;42.674;23.350;2023-05-31T02:01:12;17.37;;;15.27;;
23163;SDS011;31429;42.674;23.350;2023-05-31T02:02:13;15.13;;;13.63;;
23163;SDS011;31429;42.674;23.350;2023-05-31T02:03:13;18.10;;;16.20;;
23163;SDS011;31429;42.674;23.350;2023-05-31T02:04:16;17.20;;;15.53;;
23163;SDS011;31429;42.674;23.350;2023-05-31T02:05:17;17.00;;;14.13;;
23163;SDS011;31429;42.674;23.350;2023-05-31T02:06:18;17.97;;;16.07;;
23163;SDS011;31429;42.674;23.350;2023-05-31T02:07:19;19.20;;;15.60;;
23163;SDS011;31429;42.674;23.350;2023-05-31T02:08:22;13.77;;;12.40;;
23163;SDS011;31429;42.674;23.350;2023-05-31T02:09:23;10.67;;;9.57;;
23163;SDS011;31429;42.674;23.350;2023-05-31T02:10:23;11.23;;;8.73;;
23163;SDS011;31429;42.674;23.350;2023-05-31T02:11:24;12.83;;;9.40;;
23163;SDS011;31429;42.674;23.350;2023-05-31T02:12:25;11.97;;;9.93;;
23163;SDS011;31429;42.674;23.350;2023-05-31T02:13:27;13.97;;;10.40;;
23163;SDS011;31429;42.674;23.350;2023-05-31T02:14:28;12.27;;;10.97;;
23163;SDS011;31429;42.674;23.350;2023-05-31T02:15:29;10.83;;;9.50;;
23163;SDS011;31429;42.674;23.350;2023-05-31T02:16:29;10.80;;;9.80;;
23163;SDS011;31429;42.674;23.350;2023-05-31T02:17:30;12.43;;;10.23;;
23163;SDS011;31429;42.674;23.350;2023-05-31T02:18:33;11.77;;;10.17;;
23163;SDS011;31429;42.674;23.350;2023-05-31T02:19:35;12.60;;;11.10;;
23163;SDS011;31429;42.674;23.350;2023-05-31T02:20:37;13.07;;;11.67;;
23163;SDS011;31429;42.674;23.350;2023-05-31T02:21:38;12.27;;;11.07;;
23163;SDS011;31429;42.674;23.350;2023-05-31T02:22:38;10.77;;;9.67;;
23163;SDS011;31429;42.674;23.350;2023-05-31T02:23:39;13.47;;;8.93;;
23163;SDS011;31429;42.674;23.350;2023-05-31T02:24:41;13.93;;;12.47;;
23163;SDS011;31429;42.674;23.350;2023-05-31T02:25:44;15.83;;;14.13;;
23163;SDS011;31429;42.674;23.350;2023-05-31T02:26:45;12.90;;;11.50;;
23163;SDS011;31429;42.674;23.350;2023-05-31T02:27:45;13.13;;;11.83;;
23163;SDS011;31429;42.674;23.350;2023-05-31T02:28:47;15.33;;;13.73;;
23163;SDS011;31429;42.674;23.350;2023-05-31T02:29:48;15.23;;;12.80;;
23163;SDS011;31429;42.674;23.350;2023-05-31T02:30:55;13.00;;;11.67;;
23163;SDS011;31429;42.674;23.350;2023-05-31T02:31:56;15.23;;;13.10;;
23163;SDS011;31429;42.674;23.350;2023-05-31T02:32:56;13.17;;;11.77;;
23163;SDS011;31429;42.674;23.350;2023-05-31T02:33:59;15.13;;;13.30;;
23163;SDS011;31429;42.674;23.350;2023-05-31T02:35:00;13.93;;;12.10;;
23163;SDS011;31429;42.674;23.350;2023-05-31T02:36:01;15.93;;;14.33;;
23163;SDS011;31429;42.674;23.350;2023-05-31T02:37:02;15.83;;;13.27;;
23163;SDS011;31429;42.674;23.350;2023-05-31T02:38:04;12.70;;;10.23;;
23163;SDS011;31429;42.674;23.350;2023-05-31T02:39:04;13.03;;;11.73;;
23163;SDS011;31429;42.674;23.350;2023-05-31T02:40:05;14.17;;;12.67;;
23163;SDS011;31429;42.674;23.350;2023-05-31T02:41:10;13.13;;;11.83;;
23163;SDS011;31429;42.674;23.350;2023-05-31T02:42:10;11.40;;;10.20;;
23163;SDS011;31429;42.674;23.350;2023-05-31T02:43:11;14.87;;;9.77;;
23163;SDS011;31429;42.674;23.350;2023-05-31T02:44:13;11.67;;;9.27;;
23163;SDS011;31429;42.674;23.350;2023-05-31T02:45:14;12.77;;;9.07;;
23163;SDS011;31429;42.674;23.350;2023-05-31T02:46:15;14.93;;;10.70;;
23163;SDS011;31429;42.674;23.350;2023-05-31T02:47:15;14.53;;;9.93;;
23163;SDS011;31429;42.674;23.350;2023-05-31T02:48:16;14.97;;;10.87;;
23163;SDS011;31429;42.674;23.350;2023-05-31T02:49:17;10.77;;;8.73;;
23163;SDS011;31429;42.674;23.350;2023-05-31T02:50:18;10.30;;;9.13;;
23163;SDS011;31429;42.674;23.350;2023-05-31T02:51:18;11.57;;;9.87;;
23163;SDS011;31429;42.674;23.350;2023-05-31T02:52:19;10.30;;;9.23;;
23163;SDS011;31429;42.674;23.350;2023-05-31T02:53:21;11.37;;;10.43;;
23163;SDS011;31429;42.674;23.350;2023-05-31T02:54:21;15.30;;;12.60;;
23163;SDS011;31429;42.674;23.350;2023-05-31T02:55:22;15.23;;;11.00;;
23163;SDS011;31429;42.674;23.350;2023-05-31T02:56:23;12.93;;;11.63;;
23163;SDS011;31429;42.674;23.350;2023-05-31T02:57:23;14.67;;;10.90;;
23163;SDS011;31429;42.674;23.350;2023-05-31T02:58:24;13.00;;;11.60;;
23163;SDS011;31429;42.674;23.350;2023-05-31T02:59:26;12.57;;;11.40;;
23163;SDS011;31429;42.674;23.350;2023-05-31T03:00:26;14.77;;;11.27;;
23163;SDS011;31429;42.674;23.350;2023-05-31T03:01:27;13.43;;;12.00;;
23163;SDS011;31429;42.674;23.350;2023-05-31T03:02:28;13.73;;;12.30;;
23163;SDS011;31429;42.674;23.350;2023-05-31T03:03:29;14.67;;;12.27;;
23163;SDS011;31429;42.674;23.350;2023-05-31T03:04:30;14.23;;;12.83;;
23163;SDS011;31429;42.674;23.350;2023-05-31T03:05:31;13.40;;;11.50;;
23163;SDS011;31429;42.674;23.350;2023-05-31T03:06:34;17.70;;;13.43;;
23163;SDS011;31429;42.674;23.350;2023-05-31T03:07:34;19.80;;;14.27;;
23163;SDS011;31429;42.674;23.350;2023-05-31T03:08:35;17.30;;;13.47;;
23163;SDS011;31429;42.674;23.350;2023-05-31T03:09:36;15.30;;;13.70;;
23163;SDS011;31429;42.674;23.350;2023-05-31T03:10:36;17.20;;;12.83;;
23163;SDS011;31429;42.674;23.350;2023-05-31T03:11:37;19.03;;;14.20;;
23163;SDS011;31429;42.674;23.350;2023-05-31T03:12:38;15.87;;;14.27;;
23163;SDS011;31429;42.674;23.350;2023-05-31T03:13:38;17.07;;;12.53;;
23163;SDS011;31429;42.674;23.350;2023-05-31T03:14:41;17.90;;;12.90;;
23163;SDS011;31429;42.674;23.350;2023-05-31T03:15:41;14.33;;;12.83;;
23163;SDS011;31429;42.674;23.350;2023-05-31T03:16:42;16.30;;;14.10;;
23163;SDS011;31429;42.674;23.350;2023-05-31T03:17:43;15.17;;;13.57;;
23163;SDS011;31429;42.674;23.350;2023-05-31T03:18:44;19.33;;;13.67;;
23163;SDS011;31429;42.674;23.350;2023-05-31T03:19:44;14.60;;;12.63;;
23163;SDS011;31429;42.674;23.350;2023-05-31T03:20:45;14.40;;;12.17;;
23163;SDS011;31429;42.674;23.350;2023-05-31T03:21:46;15.27;;;12.90;;
23163;SDS011;31429;42.674;23.350;2023-05-31T03:22:46;13.90;;;12.50;;
23163;SDS011;31429;42.674;23.350;2023-05-31T03:23:47;13.43;;;12.03;;
23163;SDS011;31429;42.674;23.350;2023-05-31T03:24:47;13.93;;;12.43;;
23163;SDS011;31429;42.674;23.350;2023-05-31T03:25:48;15.00;;;12.67;;
23163;SDS011;31429;42.674;23.350;2023-05-31T03:26:49;15.53;;;13.10;;
23163;SDS011;31429;42.674;23.350;2023-05-31T03:27:50;14.93;;;12.40;;
23163;SDS011;31429;42.674;23.350;2023-05-31T03:28:51;16.63;;;13.20;;
23163;SDS011;31429;42.674;23.350;2023-05-31T03:29:53;17.17;;;13.53;;
23163;SDS011;31429;42.674;23.350;2023-05-31T03:30:53;17.10;;;13.53;;
23163;SDS011;31429;42.674;23.350;2023-05-31T03:31:55;13.77;;;12.30;;
23163;SDS011;31429;42.674;23.350;2023-05-31T03:32:56;17.83;;;12.50;;
23163;SDS011;31429;42.674;23.350;2023-05-31T03:33:56;16.53;;;12.07;;
23163;SDS011;31429;42.674;23.350;2023-05-31T03:34:57;13.97;;;12.57;;
23163;SDS011;31429;42.674;23.350;2023-05-31T03:35:57;13.57;;;12.20;;
23163;SDS011;31429;42.674;23.350;2023-05-31T03:36:58;13.43;;;12.03;;
23163;SDS011;31429;42.674;23.350;2023-05-31T03:37:59;16.60;;;13.03;;
23163;SDS011;31429;42.674;23.350;2023-05-31T03:39:00;13.60;;;12.20;;
23163;SDS011;31429;42.674;23.350;2023-05-31T03:40:00;14.37;;;12.83;;
23163;SDS011;31429;42.674;23.350;2023-05-31T03:41:01;16.83;;;13.13;;
23163;SDS011;31429;42.674;23.350;2023-05-31T03:42:02;16.23;;;12.37;;
23163;SDS011;31429;42.674;23.350;2023-05-31T03:43:03;14.40;;;12.90;;
23163;SDS011;31429;42.674;23.350;2023-05-31T03:44:03;13.63;;;12.17;;
23163;SDS011;31429;42.674;23.350;2023-05-31T03:45:06;15.93;;;13.43;;
23163;SDS011;31429;42.674;23.350;2023-05-31T03:46:07;17.80;;;12.67;;
23163;SDS011;31429;42.674;23.350;2023-05-31T03:47:08;13.97;;;12.37;;
23163;SDS011;31429;42.674;23.350;2023-05-31T03:48:08;16.73;;;12.90;;
23163;SDS011;31429;42.674;23.350;2023-05-31T03:49:09;14.33;;;12.83;;
23163;SDS011;31429;42.674;23.350;2023-05-31T03:50:10;13.20;;;11.80;;
23163;SDS011;31429;42.674;23.350;2023-05-31T03:51:11;15.93;;;12.80;;
23163;SDS011;31429;42.674;23.350;2023-05-31T03:52:12;16.40;;;12.83;;
23163;SDS011;31429;42.674;23.350;2023-05-31T03:53:13;18.23;;;13.87;;
23163;SDS011;31429;42.674;23.350;2023-05-31T03:54:14;16.37;;;12.77;;
23163;SDS011;31429;42.674;23.350;2023-05-31T03:55:14;17.83;;;13.40;;
23163;SDS011;31429;42.674;23.350;2023-05-31T03:56:15;17.60;;;13.20;;
23163;SDS011;31429;42.674;23.350;2023-05-31T03:57:16;15.27;;;13.53;;
23163;SDS011;31429;42.674;23.350;2023-05-31T03:58:16;14.40;;;12.90;;
23163;SDS011;31429;42.674;23.350;2023-05-31T03:59:17;14.70;;;12.30;;
23163;SDS011;31429;42.674;23.350;2023-05-31T04:00:19;16.03;;;12.83;;
23163;SDS011;31429;42.674;23.350;2023-05-31T04:01:20;16.90;;;13.57;;
23163;SDS011;31429;42.674;23.350;2023-05-31T04:02:21;16.63;;;13.47;;
23163;SDS011;31429;42.674;23.350;2023-05-31T04:03:22;15.83;;;12.70;;
23163;SDS011;31429;42.674;23.350;2023-05-31T04:04:22;17.00;;;13.63;;
23163;SDS011;31429;42.674;23.350;2023-05-31T04:05:23;15.87;;;13.13;;
23163;SDS011;31429;42.674;23.350;2023-05-31T04:06:23;19.30;;;13.63;;
23163;SDS011;31429;42.674;23.350;2023-05-31T04:07:27;17.17;;;13.63;;
23163;SDS011;31429;42.674;23.350;2023-05-31T04:08:27;18.43;;;13.03;;
23163;SDS011;31429;42.674;23.350;2023-05-31T04:09:28;17.60;;;13.97;;
23163;SDS011;31429;42.674;23.350;2023-05-31T04:10:28;17.50;;;13.43;;
23163;SDS011;31429;42.674;23.350;2023-05-31T04:11:29;20.73;;;13.83;;
23163;SDS011;31429;42.674;23.350;2023-05-31T04:12:30;16.20;;;13.80;;
23163;SDS011;31429;42.674;23.350;2023-05-31T04:13:30;20.87;;;14.60;;
23163;SDS011;31429;42.674;23.350;2023-05-31T04:14:31;19.77;;;13.27;;
23163;SDS011;31429;42.674;23.350;2023-05-31T04:15:33;17.67;;;13.27;;
23163;SDS011;31429;42.674;23.350;2023-05-31T04:16:33;19.27;;;14.20;;
23163;SDS011;31429;42.674;23.350;2023-05-31T04:17:34;19.90;;;14.40;;
23163;SDS011;31429;42.674;23.350;2023-05-31T04:18:35;20.00;;;14.17;;
23163;SDS011;31429;42.674;23.350;2023-05-31T04:19:35;20.43;;;14.27;;
23163;SDS011;31429;42.674;23.350;2023-05-31T04:20:36;21.43;;;15.87;;
23163;SDS011;31429;42.674;23.350;2023-05-31T04:21:37;20.60;;;15.30;;
23163;SDS011;31429;42.674;23.350;2023-05-31T04:22:37;27.37;;;17.23;;
23163;SDS011;31429;42.674;23.350;2023-05-31T04:23:38;23.53;;;17.33;;
23163;SDS011;31429;42.674;23.350;2023-05-31T04:24:39;23.43;;;17.63;;
23163;SDS011;31429;42.674;23.350;2023-05-31T04:25:39;25.37;;;17.70;;
23163;SDS011;31429;42.674;23.350;2023-05-31T04:26:40;21.27;;;16.60;;
23163;SDS011;31429;42.674;23.350;2023-05-31T04:27:41;22.53;;;16.13;;
23163;SDS011;31429;42.674;23.350;2023-05-31T04:28:42;21.17;;;16.73;;
23163;SDS011;31429;42.674;23.350;2023-05-31T04:29:42;22.57;;;16.17;;
23163;SDS011;31429;42.674;23.350;2023-05-31T04:30:44;24.57;;;16.73;;
23163;SDS011;31429;42.674;23.350;2023-05-31T04:31:45;22.47;;;16.60;;
23163;SDS011;31429;42.674;23.350;2023-05-31T04:32:46;22.10;;;17.47;;
23163;SDS011;31429;42.674;23.350;2023-05-31T04:33:52;25.90;;;17.57;;
23163;SDS011;31429;42.674;23.350;2023-05-31T04:34:53;25.77;;;17.20;;
23163;SDS011;31429;42.674;23.350;2023-05-31T04:35:58;21.60;;;16.90;;
23163;SDS011;31429;42.674;23.350;2023-05-31T04:36:59;21.27;;;16.73;;
23163;SDS011;31429;42.674;23.350;2023-05-31T04:37:59;21.93;;;16.87;;
23163;SDS011;31429;42.674;23.350;2023-05-31T04:39:02;21.17;;;16.87;;
23163;SDS011;31429;42.674;23.350;2023-05-31T04:40:04;25.13;;;17.03;;
23163;SDS011;31429;42.674;23.350;2023-05-31T04:41:09;23.47;;;15.50;;
23163;SDS011;31429;42.674;23.350;2023-05-31T04:42:10;26.47;;;17.30;;
23163;SDS011;31429;42.674;23.350;2023-05-31T04:43:11;26.50;;;16.70;;
23163;SDS011;31429;42.674;23.350;2023-05-31T04:44:12;22.23;;;16.37;;
23163;SDS011;31429;42.674;23.350;2023-05-31T04:45:12;21.23;;;15.67;;
23163;SDS011;31429;42.674;23.350;2023-05-31T04:46:16;19.63;;;15.30;;
23163;SDS011;31429;42.674;23.350;2023-05-31T04:47:17;19.43;;;15.33;;
23163;SDS011;31429;42.674;23.350;2023-05-31T04:48:19;22.13;;;14.90;;
23163;SDS011;31429;42.674;23.350;2023-05-31T04:49:20;27.20;;;15.70;;
23163;SDS011;31429;42.674;23.350;2023-05-31T04:50:21;23.57;;;16.47;;
23163;SDS011;31429;42.674;23.350;2023-05-31T04:51:21;23.03;;;17.50;;
23163;SDS011;31429;42.674;23.350;2023-05-31T04:52:23;26.83;;;16.70;;
23163;SDS011;31429;42.674;23.350;2023-05-31T04:53:24;24.67;;;16.73;;
23163;SDS011;31429;42.674;23.350;2023-05-31T04:54:24;24.40;;;17.13;;
23163;SDS011;31429;42.674;23.350;2023-05-31T04:55:25;23.23;;;16.10;;
23163;SDS011;31429;42.674;23.350;2023-05-31T04:56:26;21.93;;;16.77;;
23163;SDS011;31429;42.674;23.350;2023-05-31T04:57:28;22.87;;;17.23;;
23163;SDS011;31429;42.674;23.350;2023-05-31T04:58:28;23.67;;;16.80;;
23163;SDS011;31429;42.674;23.350;2023-05-31T04:59:29;22.27;;;16.50;;
23163;SDS011;31429;42.674;23.350;2023-05-31T05:00:30;23.97;;;17.30;;
23163;SDS011;31429;42.674;23.350;2023-05-31T05:01:33;29.80;;;18.57;;
23163;SDS011;31429;42.674;23.350;2023-05-31T05:02:34;23.23;;;17.60;;
23163;SDS011;31429;42.674;23.350;2023-05-31T05:03:34;24.93;;;17.03;;
23163;SDS011;31429;42.674;23.350;2023-05-31T05:04:35;28.87;;;16.93;;
23163;SDS011;31429;42.674;23.350;2023-05-31T05:05:36;22.53;;;15.83;;
23163;SDS011;31429;42.674;23.350;2023-05-31T05:06:36;28.57;;;17.00;;
23163;SDS011;31429;42.674;23.350;2023-05-31T05:07:37;25.53;;;16.97;;
23163;SDS011;31429;42.674;23.350;2023-05-31T05:08:38;25.07;;;15.00;;
23163;SDS011;31429;42.674;23.350;2023-05-31T05:09:39;28.67;;;17.03;;
23163;SDS011;31429;42.674;23.350;2023-05-31T05:10:39;24.60;;;16.20;;
23163;SDS011;31429;42.674;23.350;2023-05-31T05:11:40;20.67;;;16.40;;
23163;SDS011;31429;42.674;23.350;2023-05-31T05:12:41;27.43;;;16.80;;
23163;SDS011;31429;42.674;23.350;2023-05-31T05:13:42;23.17;;;15.63;;
23163;SDS011;31429;42.674;23.350;2023-05-31T05:14:43;27.63;;;15.93;;
23163;SDS011;31429;42.674;23.350;2023-05-31T05:15:44;21.87;;;16.50;;
23163;SDS011;31429;42.674;23.350;2023-05-31T05:16:46;24.77;;;17.00;;
23163;SDS011;31429;42.674;23.350;2023-05-31T05:17:46;25.13;;;17.27;;
23163;SDS011;31429;42.674;23.350;2023-05-31T05:18:47;22.70;;;18.07;;
23163;SDS011;31429;42.674;23.350;2023-05-31T05:19:48;28.27;;;17.73;;
23163;SDS011;31429;42.674;23.350;2023-05-31T05:20:48;23.73;;;17.53;;
23163;SDS011;31429;42.674;23.350;2023-05-31T05:21:49;24.50;;;17.20;;
23163;SDS011;31429;42.674;23.350;2023-05-31T05:22:50;21.43;;;17.20;;
23163;SDS011;31429;42.674;23.350;2023-05-31T05:23:52;24.10;;;17.57;;
23163;SDS011;31429;42.674;23.350;2023-05-31T05:24:52;22.53;;;16.73;;
23163;SDS011;31429;42.674;23.350;2023-05-31T05:25:53;24.37;;;17.53;;
23163;SDS011;31429;42.674;23.350;2023-05-31T05:26:53;23.97;;;17.47;;
23163;SDS011;31429;42.674;23.350;2023-05-31T05:27:54;21.83;;;17.37;;
23163;SDS011;31429;42.674;23.350;2023-05-31T05:28:55;23.97;;;17.27;;
23163;SDS011;31429;42.674;23.350;2023-05-31T05:29:55;22.50;;;17.47;;
23163;SDS011;31429;42.674;23.350;2023-05-31T05:30:56;22.87;;;17.27;;
23163;SDS011;31429;42.674;23.350;2023-05-31T05:31:58;25.87;;;18.67;;
23163;SDS011;31429;42.674;23.350;2023-05-31T05:32:59;25.20;;;18.20;;
23163;SDS011;31429;42.674;23.350;2023-05-31T05:33:59;25.27;;;18.20;;
23163;SDS011;31429;42.674;23.350;2023-05-31T05:35:00;25.23;;;17.80;;
23163;SDS011;31429;42.674;23.350;2023-05-31T05:36:01;24.20;;;17.37;;
23163;SDS011;31429;42.674;23.350;2023-05-31T05:37:02;23.43;;;18.00;;
23163;SDS011;31429;42.674;23.350;2023-05-31T05:38:03;21.07;;;17.70;;
23163;SDS011;31429;42.674;23.350;2023-05-31T05:39:03;20.83;;;16.50;;
23163;SDS011;31429;42.674;23.350;2023-05-31T05:40:06;22.47;;;17.57;;
23163;SDS011;31429;42.674;23.350;2023-05-31T05:41:08;21.30;;;16.40;;
23163;SDS011;31429;42.674;23.350;2023-05-31T05:42:12;18.70;;;16.57;;
23163;SDS011;31429;42.674;23.350;2023-05-31T05:43:13;19.70;;;16.97;;
23163;SDS011;31429;42.674;23.350;2023-05-31T05:44:14;20.77;;;16.93;;
23163;SDS011;31429;42.674;23.350;2023-05-31T05:45:14;23.27;;;16.37;;
23163;SDS011;31429;42.674;23.350;2023-05-31T05:46:15;18.97;;;15.83;;
23163;SDS011;31429;42.674;23.350;2023-05-31T05:47:17;21.10;;;16.20;;
23163;SDS011;31429;42.674;23.350;2023-05-31T05:48:18;22.90;;;15.47;;
23163;SDS011;31429;42.674;23.350;2023-05-31T05:49:19;18.33;;;14.87;;
23163;SDS011;31429;42.674;23.350;2023-05-31T05:50:19;19.23;;;14.70;;
23163;SDS011;31429;42.674;23.350;2023-05-31T05:51:20;21.67;;;13.73;;
23163;SDS011;31429;42.674;23.350;2023-05-31T05:52:20;22.47;;;15.93;;
23163;SDS011;31429;42.674;23.350;2023-05-31T05:53:21;24.20;;;16.73;;
23163;SDS011;31429;42.674;23.350;2023-05-31T05:54:22;26.77;;;17.60;;